Time;durP1;ratioP1;P1;durP2;ratioP2;P2;SDS_P1;SDS_P2;PMS_P1;PMS_P2;Temp;Humidity;BMP_temperature;BMP_pressure;BME280_temperature;BME280_humidity;BME280_pressure;Samples;Min_cycle;Max_cycle;Signal;HPM_P1;HPM_P2
2021/10/25 00:00:11;;;;;;;15.83;11.87;;;4.10;95.20;;;;;;5039867;28;20211;-82
2021/10/25 00:02:38;;;;;;;14.50;10.13;;;4.30;95.20;;;;;;5043029;28;20222;-82
2021/10/25 00:05:07;;;;;;;5.80;4.10;;;4.50;95.00;;;;;;5038683;28;20203;-82
2021/10/25 00:07:34;;;;;;;5.43;4.13;;;4.40;94.00;;;;;;5038002;28;20237;-82
2021/10/25 00:10:01;;;;;;;14.60;10.03;;;4.30;94.20;;;;;;5040968;28;20226;-82
2021/10/25 00:12:28;;;;;;;9.30;7.50;;;4.30;94.90;;;;;;5033830;28;20226;-82
2021/10/25 00:14:55;;;;;;;9.73;6.40;;;4.50;94.80;;;;;;5030603;28;20216;-82
2021/10/25 00:17:23;;;;;;;7.37;4.00;;;4.40;94.00;;;;;;5033692;28;20222;-83
2021/10/25 00:19:50;;;;;;;5.47;3.93;;;4.30;93.90;;;;;;5029778;28;20202;-82
2021/10/25 00:22:19;;;;;;;10.83;8.50;;;4.20;93.80;;;;;;5032801;28;20678;-83
2021/10/25 00:24:46;;;;;;;7.77;5.30;;;4.20;94.90;;;;;;5027331;28;20214;-82
2021/10/25 00:27:13;;;;;;;5.83;5.23;;;4.20;94.60;;;;;;5031029;28;20230;-83
2021/10/25 00:29:40;;;;;;;10.93;6.77;;;4.20;94.20;;;;;;5029457;28;20206;-83
2021/10/25 00:32:07;;;;;;;7.13;4.80;;;4.30;94.40;;;;;;5029255;28;20226;-82
2021/10/25 00:34:34;;;;;;;6.83;5.50;;;4.30;93.80;;;;;;5025779;28;20195;-83
2021/10/25 00:37:03;;;;;;;6.67;5.17;;;4.30;93.70;;;;;;5035943;28;20230;-82
2021/10/25 00:39:33;;;;;;;5.67;4.77;;;4.20;93.80;;;;;;5033771;28;20249;-82
2021/10/25 00:42:01;;;;;;;5.57;4.30;;;4.20;93.90;;;;;;5033374;28;20268;-82
2021/10/25 00:44:30;;;;;;;6.73;4.77;;;4.00;93.40;;;;;;5031831;28;20203;-82
2021/10/25 00:46:58;;;;;;;5.17;3.77;;;4.10;94.40;;;;;;5031862;28;20737;-82
2021/10/25 00:49:25;;;;;;;3.80;3.40;;;4.10;93.60;;;;;;5035111;28;20207;-83
2021/10/25 00:51:53;;;;;;;5.70;4.50;;;4.10;93.70;;;;;;5035983;28;20234;-82
2021/10/25 00:54:21;;;;;;;6.43;3.93;;;4.10;94.10;;;;;;5039663;28;20222;-82
2021/10/25 00:56:50;;;;;;;4.93;4.07;;;4.20;93.80;;;;;;5045199;28;20249;-83
2021/10/25 00:59:17;;;;;;;6.10;3.90;;;4.30;94.00;;;;;;5033361;28;20654;-83
2021/10/25 01:01:44;;;;;;;4.93;3.90;;;4.20;93.00;;;;;;5034867;28;20232;-83
2021/10/25 01:04:12;;;;;;;5.27;3.93;;;4.10;93.10;;;;;;5038425;28;20260;-83
2021/10/25 01:06:39;;;;;;;4.43;3.60;;;4.10;93.30;;;;;;5028847;28;20222;-82
2021/10/25 01:09:07;;;;;;;3.90;3.47;;;3.90;93.10;;;;;;5034607;28;20275;-83
2021/10/25 01:11:36;;;;;;;4.97;3.83;;;3.80;93.40;;;;;;5034810;28;20292;-83
2021/10/25 01:14:04;;;;;;;4.00;3.60;;;3.80;93.60;;;;;;5035269;28;20257;-82
2021/10/25 01:16:31;;;;;;;6.13;3.90;;;3.80;94.00;;;;;;5034186;28;20249;-83
2021/10/25 01:18:58;;;;;;;4.37;3.90;;;3.80;94.50;;;;;;5029884;28;20226;-83
2021/10/25 01:21:27;;;;;;;4.30;3.53;;;3.80;94.10;;;;;;5036711;28;20232;-83
2021/10/25 01:23:56;;;;;;;4.47;3.50;;;3.70;93.80;;;;;;5036874;28;20225;-82
2021/10/25 01:26:24;;;;;;;4.57;3.57;;;3.70;93.90;;;;;;5023929;28;20640;-82
2021/10/25 01:28:52;;;;;;;4.20;3.13;;;3.70;93.80;;;;;;5026298;28;20565;-82
2021/10/25 01:31:20;;;;;;;4.10;3.43;;;3.50;93.60;;;;;;5032878;28;20313;-82
2021/10/25 01:33:47;;;;;;;4.47;3.40;;;3.60;94.00;;;;;;5035496;28;20199;-82
2021/10/25 01:36:14;;;;;;;4.10;3.50;;;3.60;93.90;;;;;;5039553;28;20230;-83
2021/10/25 01:38:43;;;;;;;3.73;3.03;;;3.60;93.70;;;;;;5034950;28;20238;-82
2021/10/25 01:41:10;;;;;;;3.93;3.20;;;3.60;93.60;;;;;;5038533;28;20244;-84
2021/10/25 01:43:38;;;;;;;3.90;3.40;;;3.60;93.60;;;;;;5024977;28;20690;-82
2021/10/25 01:46:06;;;;;;;4.80;3.40;;;3.50;93.60;;;;;;5032497;28;20244;-82
2021/10/25 01:48:33;;;;;;;4.33;3.60;;;3.50;93.70;;;;;;5032275;28;20199;-82
2021/10/25 01:51:00;;;;;;;4.90;3.50;;;3.50;94.00;;;;;;5034101;28;20222;-82
2021/10/25 01:53:28;;;;;;;4.97;3.33;;;3.70;93.60;;;;;;5031979;28;20207;-82
2021/10/25 01:56:00;;;;;;;5.37;3.27;;;3.60;93.50;;;;;;5031675;28;20221;-82
2021/10/25 01:58:29;;;;;;;3.73;3.37;;;3.60;93.50;;;;;;5032260;28;20213;-82
2021/10/25 02:00:56;;;;;;;4.73;3.40;;;3.70;93.40;;;;;;5036729;28;20650;-82
2021/10/25 02:03:23;;;;;;;3.20;2.87;;;3.60;93.40;;;;;;5035486;28;20209;-83
2021/10/25 02:05:50;;;;;;;3.60;3.20;;;3.60;93.40;;;;;;5032368;28;20209;-82
2021/10/25 02:08:17;;;;;;;4.30;3.23;;;3.60;93.00;;;;;;5033540;28;20204;-84
2021/10/25 02:10:45;;;;;;;4.13;3.10;;;3.50;93.40;;;;;;5027767;28;20309;-83
2021/10/25 02:13:16;;;;;;;4.27;2.83;;;3.50;93.80;;;;;;5031164;28;20222;-82
2021/10/25 02:15:45;;;;;;;4.20;3.20;;;3.60;93.30;;;;;;5036282;28;20210;-83
2021/10/25 02:18:12;;;;;;;3.77;2.77;;;3.50;93.30;;;;;;5035213;28;20225;-82
2021/10/25 02:20:40;;;;;;;3.10;2.70;;;3.30;93.00;;;;;;5029021;28;20209;-83
2021/10/25 02:23:07;;;;;;;3.07;2.43;;;3.30;93.50;;;;;;5026075;28;20222;-82
2021/10/25 02:25:35;;;;;;;3.43;2.87;;;3.30;93.60;;;;;;5035898;28;20226;-82
2021/10/25 02:28:04;;;;;;;3.13;2.83;;;3.20;93.50;;;;;;5043674;28;20447;-82
2021/10/25 02:30:33;;;;;;;3.10;2.87;;;3.10;93.60;;;;;;5036145;28;20208;-82
2021/10/25 02:33:01;;;;;;;3.67;2.90;;;3.20;93.80;;;;;;5033463;28;20248;-82
2021/10/25 02:35:28;;;;;;;3.07;2.77;;;3.30;94.00;;;;;;5026818;28;20242;-83
2021/10/25 02:37:56;;;;;;;11.13;2.97;;;3.50;94.20;;;;;;5032497;28;20230;-82
2021/10/25 02:40:25;;;;;;;3.13;2.83;;;3.60;93.40;;;;;;5021931;28;20207;-82
2021/10/25 02:42:52;;;;;;;4.13;2.80;;;3.50;93.00;;;;;;5024980;28;20229;-82
2021/10/25 02:45:19;;;;;;;4.37;3.20;;;3.50;93.30;;;;;;5029883;28;20202;-83
2021/10/25 02:47:48;;;;;;;3.57;2.43;;;3.40;93.20;;;;;;5028751;28;20717;-82
2021/10/25 02:50:15;;;;;;;3.20;2.87;;;3.40;93.20;;;;;;5031156;28;20662;-83
2021/10/25 02:52:43;;;;;;;3.40;2.60;;;3.50;93.20;;;;;;5031821;28;20230;-83
2021/10/25 02:55:10;;;;;;;4.33;2.70;;;3.50;92.70;;;;;;5030504;28;20662;-82
2021/10/25 02:57:38;;;;;;;2.80;2.50;;;3.30;92.40;;;;;;5037700;28;20249;-82
2021/10/25 03:00:07;;;;;;;3.23;2.73;;;3.10;93.00;;;;;;5033114;28;20210;-82
2021/10/25 03:02:35;;;;;;;2.80;2.50;;;3.30;94.10;;;;;;5029585;28;20230;-82
2021/10/25 03:05:05;;;;;;;3.27;2.60;;;3.50;93.30;;;;;;5031194;28;20210;-82
2021/10/25 03:07:33;;;;;;;3.30;3.00;;;3.30;92.80;;;;;;5027314;28;20226;-83
2021/10/25 03:10:00;;;;;;;2.90;2.60;;;3.30;93.10;;;;;;5032662;28;20203;-82
2021/10/25 03:12:27;;;;;;;3.77;2.90;;;3.40;93.50;;;;;;5023976;28;20241;-83
2021/10/25 03:14:55;;;;;;;3.77;2.50;;;3.40;92.90;;;;;;5033539;28;20666;-82
2021/10/25 03:17:24;;;;;;;2.90;2.50;;;3.20;92.70;;;;;;5028695;28;20239;-83
2021/10/25 03:19:53;;;;;;;2.87;2.40;;;3.10;92.90;;;;;;5028531;28;20210;-83
2021/10/25 03:22:21;;;;;;;2.80;2.50;;;3.10;93.10;;;;;;5028035;28;20223;-82
2021/10/25 03:24:48;;;;;;;4.33;2.60;;;3.00;93.10;;;;;;5031300;28;20202;-82
2021/10/25 03:27:16;;;;;;;3.40;2.50;;;2.90;93.40;;;;;;5033662;28;20222;-82
2021/10/25 03:29:42;;;;;;;3.67;2.73;;;3.00;93.90;;;;;;5034070;28;20203;-82
2021/10/25 03:32:10;;;;;;;2.77;2.33;;;3.20;93.40;;;;;;5034745;28;20592;-82
2021/10/25 03:34:38;;;;;;;3.20;2.47;;;3.00;92.80;;;;;;5035785;28;20202;-82
2021/10/25 03:37:05;;;;;;;3.43;2.47;;;2.80;93.10;;;;;;5029186;28;20229;-82
2021/10/25 03:39:36;;;;;;;3.70;2.57;;;2.80;93.70;;;;;;5037226;28;20206;-82
2021/10/25 03:42:09;;;;;;;3.60;2.40;;;2.90;94.00;;;;;;5035526;28;20254;-82
2021/10/25 03:44:42;;;;;;;2.43;2.20;;;2.80;93.40;;;;;;5037044;28;20207;-82
2021/10/25 03:47:14;;;;;;;3.10;2.37;;;2.70;93.50;;;;;;5037074;28;20218;-82
2021/10/25 03:49:48;;;;;;;2.60;2.40;;;2.80;93.90;;;;;;5036594;28;20606;-83
2021/10/25 03:52:21;;;;;;;2.93;2.17;;;2.80;93.70;;;;;;5034654;28;20244;-82
2021/10/25 03:54:57;;;;;;;2.53;2.20;;;2.80;93.70;;;;;;5033555;28;20234;-82
2021/10/25 04:00:29;;;;;;;2.30;2.10;;;2.90;93.60;;;;;;5024520;28;20198;-83
2021/10/25 04:27:43;;;;;;;2.87;2.40;;;2.80;93.60;;;;;;5037784;28;20280;-83
2021/10/25 04:30:10;;;;;;;2.40;2.20;;;2.80;94.10;;;;;;5040507;28;20193;-83
2021/10/25 04:32:37;;;;;;;2.60;2.20;;;3.00;94.30;;;;;;5025100;28;20297;-83
2021/10/25 04:35:05;;;;;;;2.83;2.10;;;3.00;93.60;;;;;;5035300;28;20205;-83
2021/10/25 04:37:32;;;;;;;3.30;2.40;;;3.00;93.50;;;;;;5033413;28;20222;-83
2021/10/25 04:39:59;;;;;;;2.83;2.27;;;3.10;93.80;;;;;;5037000;28;20263;-84
2021/10/25 04:42:26;;;;;;;5.07;2.73;;;3.00;93.70;;;;;;5037416;28;20226;-84
2021/10/25 04:44:55;;;;;;;3.00;2.20;;;3.00;93.60;;;;;;5026763;28;20209;-84
2021/10/25 04:47:22;;;;;;;2.70;2.13;;;3.10;93.80;;;;;;5041020;28;20226;-84
2021/10/25 04:49:49;;;;;;;3.30;2.70;;;3.00;93.50;;;;;;5035322;28;20199;-82
2021/10/25 04:52:16;;;;;;;3.27;2.67;;;3.00;93.60;;;;;;5041702;28;20228;-83
2021/10/25 04:54:43;;;;;;;3.93;3.00;;;3.00;93.80;;;;;;5035420;28;20206;-87
2021/10/25 04:57:10;;;;;;;4.37;2.90;;;3.00;93.70;;;;;;5035799;28;20301;-85
2021/10/25 04:59:37;;;;;;;6.47;2.67;;;3.00;93.20;;;;;;5050268;28;20222;-84
2021/10/25 05:02:06;;;;;;;3.60;2.50;;;2.90;93.30;;;;;;5033830;28;20229;-85
2021/10/25 05:04:33;;;;;;;3.00;2.70;;;2.90;93.50;;;;;;5035262;28;20313;-85
2021/10/25 05:06:59;;;;;;;2.93;2.30;;;3.00;93.80;;;;;;5036544;28;20632;-85
2021/10/25 05:09:27;;;;;;;3.27;2.50;;;3.00;93.70;;;;;;5035002;28;20195;-85
2021/10/25 05:11:54;;;;;;;3.63;2.50;;;3.10;93.50;;;;;;5038850;28;20236;-85
2021/10/25 05:14:21;;;;;;;2.77;2.30;;;3.10;93.20;;;;;;5036420;28;20272;-85
2021/10/25 05:16:48;;;;;;;5.00;2.63;;;3.00;93.20;;;;;;5034826;28;20222;-85
2021/10/25 05:19:17;;;;;;;3.60;2.37;;;2.90;93.50;;;;;;5034985;28;20208;-86
2021/10/25 05:21:44;;;;;;;3.80;2.67;;;2.80;93.50;;;;;;5038970;28;20229;-87
2021/10/25 05:24:11;;;;;;;3.37;2.50;;;2.80;93.70;;;;;;5036301;28;20196;-87
2021/10/25 05:26:38;;;;;;;2.70;2.20;;;2.80;94.00;;;;;;5033022;28;20241;-86
2021/10/25 05:29:05;;;;;;;2.33;2.10;;;2.80;93.80;;;;;;5035097;28;20285;-88
2021/10/25 05:31:32;;;;;;;4.43;2.53;;;2.80;94.10;;;;;;5034504;28;20740;-86
2021/10/25 05:33:59;;;;;;;5.63;2.80;;;2.80;94.00;;;;;;5028373;28;20200;-85
2021/10/25 05:36:27;;;;;;;3.87;2.50;;;2.70;94.10;;;;;;5032309;28;20230;-86
2021/10/25 05:38:54;;;;;;;2.47;2.20;;;2.60;94.30;;;;;;5035796;28;20203;-84
2021/10/25 05:41:21;;;;;;;3.17;2.50;;;2.70;94.60;;;;;;5032098;28;20242;-85
2021/10/25 05:43:48;;;;;;;2.90;2.20;;;2.60;94.60;;;;;;5032424;28;20206;-84
2021/10/25 05:46:15;;;;;;;3.97;2.37;;;2.80;94.60;;;;;;5036027;28;20226;-84
2021/10/25 05:48:42;;;;;;;3.03;2.30;;;2.70;94.60;;;;;;5035125;28;20549;-84
2021/10/25 05:51:10;;;;;;;5.40;2.40;;;2.90;94.60;;;;;;5035465;28;20227;-84
2021/10/25 05:53:38;;;;;;;3.93;2.30;;;3.00;94.30;;;;;;5039794;28;20202;-84
2021/10/25 05:56:05;;;;;;;3.03;2.47;;;2.90;94.30;;;;;;5038525;28;20204;-84
2021/10/25 05:58:33;;;;;;;3.67;2.60;;;2.90;94.60;;;;;;5036780;28;20198;-83
2021/10/25 06:01:02;;;;;;;4.13;2.43;;;3.00;94.40;;;;;;5040915;28;20237;-84
2021/10/25 06:03:33;;;;;;;3.13;2.50;;;3.00;94.20;;;;;;5034602;28;20292;-85
2021/10/25 06:06:00;;;;;;;3.53;2.77;;;3.00;93.80;;;;;;5036310;28;20202;-85
2021/10/25 06:08:29;;;;;;;2.90;2.10;;;2.90;94.30;;;;;;5041165;28;20256;-84
2021/10/25 06:10:57;;;;;;;4.03;2.43;;;3.10;94.70;;;;;;5034436;28;20712;-87
2021/10/25 06:13:28;;;;;;;5.80;2.90;;;3.10;93.80;;;;;;5035044;28;20234;-83
2021/10/25 06:16:03;;;;;;;8.97;4.80;;;3.10;94.40;;;;;;5036542;28;20211;-84
2021/10/25 06:18:30;;;;;;;3.83;3.07;;;3.20;94.60;;;;;;5030024;28;20199;-86
2021/10/25 06:20:58;;;;;;;9.80;6.40;;;3.30;94.20;;;;;;5022784;28;20196;-86
2021/10/25 06:23:25;;;;;;;12.17;7.50;;;3.50;94.10;;;;;;5035865;28;20210;-87
2021/10/25 06:25:52;;;;;;;6.67;3.90;;;3.60;94.00;;;;;;5032003;28;20206;-85
2021/10/25 06:28:23;;;;;;;9.83;6.10;;;3.70;93.40;;;;;;5030173;28;20608;-86
2021/10/25 06:30:55;;;;;;;3.10;2.63;;;3.70;93.40;;;;;;5036935;28;20194;-84
2021/10/25 06:33:23;;;;;;;4.30;3.03;;;3.60;93.20;;;;;;5040914;28;20213;-84
2021/10/25 06:36:01;;;;;;;4.17;2.70;;;3.50;93.40;;;;;;5030372;28;20198;-85
2021/10/25 06:38:32;;;;;;;4.33;2.80;;;3.50;93.80;;;;;;5035670;28;20240;-85
2021/10/25 06:41:00;;;;;;;8.93;4.60;;;3.50;93.80;;;;;;5031220;28;21632;-84
2021/10/25 06:43:30;;;;;;;10.57;4.77;;;3.60;94.10;;;;;;5027457;28;20578;-84
2021/10/25 06:45:58;;;;;;;5.87;2.90;;;3.70;93.70;;;;;;5038742;28;20214;-86
2021/10/25 06:48:25;;;;;;;6.43;2.70;;;3.90;92.80;;;;;;5033385;28;20213;-84
2021/10/25 06:50:52;;;;;;;6.77;3.60;;;3.80;92.70;;;;;;5033928;28;20205;-87
2021/10/25 06:53:19;;;;;;;11.70;4.60;;;3.90;93.20;;;;;;5032367;28;20229;-86
2021/10/25 06:55:48;;;;;;;4.13;2.47;;;4.10;92.90;;;;;;5037690;28;20233;-85
2021/10/25 06:58:16;;;;;;;10.93;3.60;;;4.20;92.70;;;;;;5032581;28;20230;-86
2021/10/25 07:00:57;;;;;;;6.40;2.70;;;4.20;93.10;;;;;;5030437;28;20309;-87
2021/10/25 07:03:25;;;;;;;6.17;3.00;;;4.40;92.60;;;;;;5027595;28;20218;-86
2021/10/25 07:05:52;;;;;;;8.67;3.77;;;4.50;92.40;;;;;;5030255;28;20209;-86
2021/10/25 07:08:19;;;;;;;13.43;5.33;;;4.70;92.00;;;;;;5025705;28;21147;-87
2021/10/25 07:10:48;;;;;;;5.50;3.23;;;4.90;91.90;;;;;;5038512;28;20191;-86
2021/10/25 07:13:16;;;;;;;4.57;2.77;;;5.10;91.50;;;;;;5035684;28;20226;-86
2021/10/25 07:15:51;;;;;;;6.67;3.83;;;5.10;91.30;;;;;;5030372;28;20226;-86
2021/10/25 07:18:24;;;;;;;7.57;3.93;;;5.20;91.10;;;;;;5029979;28;20239;-87
2021/10/25 07:21:11;;;;;;;6.60;3.70;;;5.20;89.10;;;;;;5030348;28;20195;-87
2021/10/25 07:26:50;;;;;;;6.60;4.33;;;5.40;89.20;;;;;;5031334;28;20340;-89
2021/10/25 08:08:22;;;;;;;6.83;2.93;;;7.60;82.70;;;;;;5033825;28;20242;-88
2021/10/25 08:10:54;;;;;;;9.18;4.20;;;7.90;80.80;;;;;;5039600;28;20194;-89
2021/10/25 08:13:28;;;;;;;6.33;3.23;;;7.90;80.30;;;;;;5034338;28;20240;-87
2021/10/25 08:15:55;;;;;;;10.65;3.03;;;8.20;79.50;;;;;;5040397;28;20211;-89
2021/10/25 08:18:34;;;;;;;4.97;3.28;;;8.40;78.60;;;;;;5038624;28;20276;-88
2021/10/25 08:21:02;;;;;;;6.32;3.33;;;8.50;79.00;;;;;;5038969;28;20191;-88
2021/10/25 08:26:15;;;;;;;6.65;2.95;;;8.90;76.20;;;;;;5032766;28;20232;-89
2021/10/25 08:28:44;;;;;;;5.43;2.75;;;9.00;74.00;;;;;;5035982;28;20211;-89
2021/10/25 08:31:13;;;;;;;4.75;3.00;;;9.10;74.00;;;;;;5032034;28;20879;-89
2021/10/25 08:34:15;;;;;;;4.13;2.78;;;9.20;74.20;;;;;;5039086;28;20250;-89
2021/10/25 08:39:47;;;;;;;8.20;3.13;;;9.40;74.30;;;;;;5042031;28;20548;-89
2021/10/25 08:42:18;;;;;;;9.20;3.35;;;9.50;74.40;;;;;;5035796;28;20230;-89
2021/10/25 08:44:49;;;;;;;4.75;2.75;;;9.60;74.50;;;;;;5038108;28;20670;-90
2021/10/25 08:47:20;;;;;;;8.18;3.15;;;9.50;74.40;;;;;;5034995;28;20227;-89
2021/10/25 08:49:48;;;;;;;8.40;3.22;;;9.60;69.00;;;;;;5043484;28;20206;-89
2021/10/25 08:52:21;;;;;;;4.93;2.72;;;9.20;68.70;;;;;;5042092;28;20299;-88
2021/10/25 08:54:52;;;;;;;6.00;2.97;;;9.60;70.80;;;;;;5046602;28;20265;-89
2021/10/25 09:00:23;;;;;;;10.00;3.15;;;10.00;67.50;;;;;;5028432;28;20220;-90
2021/10/25 09:02:58;;;;;;;3.38;2.70;;;10.10;64.10;;;;;;5041042;28;20253;-89
2021/10/25 09:05:28;;;;;;;4.78;3.33;;;10.20;65.60;;;;;;5053274;28;20209;-89
2021/10/25 09:07:58;;;;;;;8.25;3.63;;;10.60;65.90;;;;;;5045565;28;20334;-89
2021/10/25 09:10:31;;;;;;;10.88;3.50;;;11.00;64.30;;;;;;5044384;28;20723;-88
2021/10/25 09:13:07;;;;;;;8.30;3.05;;;11.40;58.90;;;;;;5044017;28;20226;-88
2021/10/25 09:16:06;;;;;;;7.40;3.17;;;11.70;55.10;;;;;;5050144;28;20241;-89
2021/10/25 09:18:33;;;;;;;6.57;3.00;;;12.00;51.90;;;;;;5003690;28;20243;-89
2021/10/25 09:21:10;;;;;;;5.50;3.53;;;11.90;52.50;;;;;;5035917;28;20309;-89
2021/10/25 09:23:38;;;;;;;5.18;3.38;;;12.30;50.90;;;;;;5029603;28;20204;-90
2021/10/25 09:26:12;;;;;;;5.72;3.30;;;12.80;49.30;;;;;;5028894;28;20211;-89
2021/10/25 09:28:42;;;;;;;4.97;3.67;;;13.20;46.60;;;;;;5028851;28;20217;-89
2021/10/25 09:31:16;;;;;;;7.03;2.83;;;13.40;46.20;;;;;;5023850;28;20403;-90
2021/10/25 09:33:51;;;;;;;6.00;3.00;;;13.60;42.10;;;;;;5033077;28;20253;-89
2021/10/25 09:36:19;;;;;;;5.28;2.80;;;13.40;37.40;;;;;;5034260;28;20716;-90
2021/10/25 09:38:52;;;;;;;8.30;3.05;;;13.50;38.20;;;;;;5037364;28;20224;-92
2021/10/25 09:49:46;;;;;;;3.53;2.63;;;13.00;38.10;;;;;;5027476;28;20612;-90
2021/10/25 09:52:13;;;;;;;3.13;2.60;;;12.70;37.60;;;;;;5030304;28;20222;-89
2021/10/25 09:54:42;;;;;;;6.28;3.15;;;12.60;39.20;;;;;;5032947;28;20200;-89
2021/10/25 09:57:12;;;;;;;3.45;2.95;;;12.80;41.10;;;;;;5035278;28;20250;-89
2021/10/25 09:59:51;;;;;;;7.20;3.15;;;13.10;40.00;;;;;;5032675;28;20211;-89
2021/10/25 10:02:22;;;;;;;4.15;2.60;;;13.20;37.40;;;;;;5031670;28;20260;-89
2021/10/25 10:04:52;;;;;;;3.97;2.72;;;13.30;37.90;;;;;;5026677;28;20561;-88
2021/10/25 10:07:20;;;;;;;3.80;2.78;;;13.20;35.80;;;;;;5036210;28;20715;-89
2021/10/25 10:09:48;;;;;;;7.88;2.88;;;13.40;37.20;;;;;;5032651;28;20245;-89
2021/10/25 10:12:19;;;;;;;5.93;3.50;;;13.30;35.00;;;;;;5027738;28;21017;-90
2021/10/25 10:14:48;;;;;;;5.28;3.35;;;13.60;36.00;;;;;;5028323;28;20879;-89
2021/10/25 10:17:20;;;;;;;3.88;2.97;;;13.50;35.50;;;;;;5022217;28;20223;-88
2021/10/25 10:19:49;;;;;;;3.33;2.80;;;13.60;36.40;;;;;;5031562;28;20213;-88
2021/10/25 10:22:18;;;;;;;5.47;3.65;;;13.80;35.90;;;;;;5032929;28;20242;-90
2021/10/25 10:24:48;;;;;;;10.93;9.27;;;13.90;35.90;;;;;;5033740;28;20203;-91
2021/10/25 10:27:23;;;;;;;6.05;3.55;;;13.90;34.00;;;;;;5029095;28;20796;-90
2021/10/25 10:29:52;;;;;;;5.25;3.80;;;13.90;33.70;;;;;;5030475;28;20199;-89
2021/10/25 10:32:20;;;;;;;6.75;4.20;;;14.00;34.40;;;;;;5022843;28;20218;-91
2021/10/25 10:34:50;;;;;;;8.73;4.63;;;14.30;33.90;;;;;;5034405;28;20194;-89
2021/10/25 10:37:20;;;;;;;9.85;4.53;;;14.40;32.00;;;;;;5027715;28;20226;-90
2021/10/25 10:39:59;;;;;;;5.57;4.40;;;14.60;32.90;;;;;;5038156;28;20213;-90
2021/10/25 10:42:28;;;;;;;5.85;4.50;;;14.30;32.40;;;;;;5034624;28;20229;-90
2021/10/25 10:45:00;;;;;;;8.07;4.38;;;14.10;33.00;;;;;;5027722;28;20205;-89
2021/10/25 10:47:36;;;;;;;5.18;4.25;;;14.10;33.60;;;;;;5028945;28;20226;-89
2021/10/25 10:50:04;;;;;;;5.90;4.55;;;13.80;34.60;;;;;;5025566;28;20667;-89
2021/10/25 10:52:35;;;;;;;7.85;4.53;;;13.60;34.20;;;;;;5032795;28;20277;-89
2021/10/25 10:55:06;;;;;;;6.22;4.88;;;14.00;36.60;;;;;;5033251;28;20226;-89
2021/10/25 10:58:12;;;;;;;6.32;5.07;;;14.10;34.90;;;;;;5034001;28;20345;-89
2021/10/25 11:00:44;;;;;;;8.95;5.50;;;14.00;34.40;;;;;;5039587;28;20198;-89
2021/10/25 11:03:21;;;;;;;6.70;5.25;;;13.90;34.90;;;;;;5031069;28;20230;-89
2021/10/25 11:05:53;;;;;;;8.25;5.82;;;13.90;34.50;;;;;;5029418;28;20226;-89
2021/10/25 11:08:22;;;;;;;9.98;5.80;;;13.90;34.60;;;;;;5025260;28;20215;-89
2021/10/25 11:10:57;;;;;;;9.75;6.15;;;13.70;35.50;;;;;;5031026;28;20205;-89
2021/10/25 11:13:27;;;;;;;8.48;5.72;;;13.60;36.40;;;;;;5031561;28;20218;-88
2021/10/25 11:16:03;;;;;;;8.52;5.65;;;13.70;35.40;;;;;;5022233;28;20229;-88
2021/10/25 11:18:32;;;;;;;6.82;5.68;;;13.70;36.20;;;;;;5031091;28;20229;-88
2021/10/25 11:21:16;;;;;;;8.18;6.03;;;13.70;35.80;;;;;;5032128;28;20643;-89
2021/10/25 11:23:47;;;;;;;7.72;5.90;;;13.70;36.50;;;;;;5031627;28;20209;-89
2021/10/25 11:26:17;;;;;;;8.07;5.20;;;13.70;35.80;;;;;;5036193;28;20249;-90
2021/10/25 11:29:03;;;;;;;9.43;5.50;;;13.90;35.90;;;;;;5028304;28;20220;-93
2021/10/25 11:31:31;;;;;;;8.43;5.57;;;13.80;35.90;;;;;;5028389;28;20230;-90
2021/10/25 11:33:59;;;;;;;9.07;5.35;;;13.90;36.30;;;;;;5030686;28;20218;-90
2021/10/25 11:36:29;;;;;;;6.80;5.55;;;13.80;36.50;;;;;;5031044;28;20218;-89
2021/10/25 11:38:57;;;;;;;6.32;5.20;;;13.60;36.60;;;;;;5028114;28;20202;-89
2021/10/25 11:41:24;;;;;;;7.28;5.20;;;13.70;38.10;;;;;;5027721;28;20226;-89
2021/10/25 11:43:52;;;;;;;5.72;4.88;;;13.70;38.80;;;;;;5022982;28;20201;-89
2021/10/25 11:46:23;;;;;;;6.50;5.60;;;13.60;37.80;;;;;;5032214;28;20245;-89
2021/10/25 11:48:56;;;;;;;7.25;5.03;;;13.20;36.60;;;;;;5045712;28;20206;-88
2021/10/25 11:51:24;;;;;;;8.18;5.28;;;13.00;38.80;;;;;;5047849;28;20249;-89
2021/10/25 11:53:56;;;;;;;7.35;4.65;;;12.90;38.40;;;;;;5041858;28;20666;-89
2021/10/25 11:56:23;;;;;;;6.97;4.90;;;13.10;39.60;;;;;;5045944;28;20237;-89
2021/10/25 11:58:51;;;;;;;6.53;5.07;;;12.90;37.20;;;;;;5048112;28;20222;-90
2021/10/25 12:01:28;;;;;;;5.97;4.72;;;13.20;38.40;;;;;;5044929;28;20237;-91
2021/10/25 12:03:55;;;;;;;7.43;4.75;;;13.30;37.90;;;;;;5037649;28;20212;-89
2021/10/25 12:06:25;;;;;;;8.38;4.50;;;13.60;38.70;;;;;;5031821;28;20304;-89
2021/10/25 12:09:02;;;;;;;7.28;4.68;;;13.80;38.10;;;;;;5041291;28;20198;-90
2021/10/25 12:14:16;;;;;;;6.88;4.40;;;13.60;37.00;;;;;;5040270;28;20241;-90
2021/10/25 12:16:48;;;;;;;8.48;4.55;;;13.40;36.10;;;;;;5042244;28;20342;-90
2021/10/25 12:19:17;;;;;;;5.43;4.47;;;13.40;36.70;;;;;;5031824;28;20202;-89
2021/10/25 12:21:44;;;;;;;7.25;4.40;;;13.40;36.20;;;;;;5031492;28;20233;-91
2021/10/25 12:24:13;;;;;;;7.53;4.90;;;13.40;37.20;;;;;;5035113;28;20210;-89
2021/10/25 12:26:41;;;;;;;6.10;4.47;;;13.70;37.30;;;;;;5039209;28;20312;-90
2021/10/25 12:29:17;;;;;;;6.75;4.40;;;13.70;37.80;;;;;;5031468;28;20210;-90
2021/10/25 12:31:46;;;;;;;6.15;4.05;;;13.60;37.40;;;;;;5029797;28;20220;-91
2021/10/25 12:34:13;;;;;;;7.53;4.53;;;13.60;37.70;;;;;;5033878;28;20229;-91
2021/10/25 12:36:43;;;;;;;5.78;4.57;;;13.50;36.40;;;;;;5033873;28;20230;-90
2021/10/25 12:39:12;;;;;;;6.35;5.10;;;13.60;35.40;;;;;;5039028;28;20198;-90
2021/10/25 12:41:56;;;;;;;6.95;4.53;;;13.50;36.30;;;;;;5043099;28;20245;-91
2021/10/25 12:44:29;;;;;;;8.27;4.57;;;13.30;36.90;;;;;;5032448;28;20226;-90
2021/10/25 12:47:09;;;;;;;5.32;4.68;;;13.40;36.80;;;;;;5043407;28;20229;-90
2021/10/25 12:49:37;;;;;;;4.45;4.00;;;13.20;37.60;;;;;;5043138;28;20213;-92
2021/10/25 12:52:05;;;;;;;4.70;4.20;;;13.20;39.30;;;;;;5039207;28;20299;-89
2021/10/25 12:54:35;;;;;;;7.65;4.47;;;13.40;41.50;;;;;;5042011;28;20249;-91
2021/10/25 12:57:05;;;;;;;5.88;4.40;;;13.60;40.10;;;;;;5034539;28;20232;-90
2021/10/25 13:02:24;;;;;;;5.30;4.28;;;13.50;38.00;;;;;;5039550;28;20250;-91
2021/10/25 13:04:51;;;;;;;6.82;4.45;;;13.60;37.40;;;;;;5045076;28;20194;-91
2021/10/25 13:07:19;;;;;;;7.57;4.43;;;13.70;37.10;;;;;;5040736;28;20281;-91
2021/10/25 13:09:49;;;;;;;6.18;4.35;;;13.60;37.40;;;;;;5043828;28;20275;-89
2021/10/25 13:12:16;;;;;;;6.07;4.43;;;13.30;37.00;;;;;;5039713;28;20237;-90
2021/10/25 13:14:43;;;;;;;7.38;4.30;;;13.30;37.90;;;;;;5041635;28;20241;-90
2021/10/25 13:17:11;;;;;;;8.63;4.32;;;13.40;39.00;;;;;;5041101;28;20227;-90
2021/10/25 13:19:40;;;;;;;6.20;4.55;;;13.30;40.50;;;;;;5041905;28;20207;-90
2021/10/25 13:22:07;;;;;;;4.82;4.32;;;13.20;42.60;;;;;;5051833;28;20355;-89
2021/10/25 13:24:34;;;;;;;7.47;4.32;;;13.40;40.40;;;;;;5044237;28;20194;-90
2021/10/25 13:27:02;;;;;;;4.68;3.78;;;13.40;40.20;;;;;;5039603;28;20228;-91
2021/10/25 13:29:29;;;;;;;5.75;4.03;;;13.40;40.60;;;;;;5042353;28;20262;-90
2021/10/25 13:31:56;;;;;;;7.47;4.22;;;13.60;42.60;;;;;;5045515;28;20238;-89
2021/10/25 13:34:23;;;;;;;6.38;4.32;;;13.50;40.70;;;;;;5045226;28;20222;-92
2021/10/25 13:36:51;;;;;;;6.07;4.47;;;13.50;42.10;;;;;;5045613;28;20249;-90
2021/10/25 13:39:20;;;;;;;6.82;4.80;;;13.50;40.00;;;;;;5046290;28;20234;-88
2021/10/25 13:41:48;;;;;;;10.55;6.13;;;13.40;40.40;;;;;;5045111;28;20284;-89
2021/10/25 13:44:16;;;;;;;9.90;5.85;;;13.40;42.10;;;;;;5039158;28;20202;-89
2021/10/25 13:46:43;;;;;;;8.23;6.10;;;13.40;43.90;;;;;;5043535;28;20238;-91
2021/10/25 13:49:15;;;;;;;8.32;5.97;;;13.30;44.40;;;;;;5049484;28;20218;-90
2021/10/25 13:51:42;;;;;;;6.68;5.68;;;13.20;47.00;;;;;;5052796;28;20745;-89
2021/10/25 13:54:11;;;;;;;9.85;6.40;;;13.10;49.60;;;;;;5049378;28;20253;-91
2021/10/25 13:57:25;;;;;;;12.23;6.65;;;12.90;49.40;;;;;;5048641;28;20238;-92
2021/10/25 14:00:31;;;;;;;12.02;6.85;;;12.70;52.80;;;;;;5048267;28;20202;-89
2021/10/25 14:03:00;;;;;;;10.50;6.60;;;12.70;53.10;;;;;;5041356;28;20303;-89
2021/10/25 14:05:28;;;;;;;12.50;7.25;;;12.50;54.10;;;;;;5047391;28;20253;-89
2021/10/25 14:07:58;;;;;;;9.85;6.95;;;12.50;54.80;;;;;;5046174;28;20229;-89
2021/10/25 14:10:34;;;;;;;11.55;6.85;;;12.40;55.30;;;;;;5057870;28;20237;-89
2021/10/25 14:13:14;;;;;;;10.75;7.00;;;12.40;56.40;;;;;;5048822;28;20236;-88
2021/10/25 14:16:31;;;;;;;10.73;7.10;;;12.50;55.70;;;;;;5048038;28;20294;-89
2021/10/25 14:18:59;;;;;;;10.48;7.10;;;12.30;57.90;;;;;;5051129;28;20218;-89
2021/10/25 14:21:34;;;;;;;10.63;7.45;;;12.20;60.00;;;;;;5045518;28;20226;-89
2021/10/25 14:24:06;;;;;;;11.55;8.02;;;12.10;60.60;;;;;;5049455;28;20741;-90
2021/10/25 14:26:34;;;;;;;8.75;7.78;;;12.00;62.30;;;;;;5036857;28;20253;-89
2021/10/25 14:29:02;;;;;;;10.73;7.70;;;12.00;62.90;;;;;;5049781;28;20194;-89
2021/10/25 14:31:38;;;;;;;13.30;8.18;;;12.10;62.10;;;;;;5048202;28;20234;-89
2021/10/25 14:34:05;;;;;;;13.20;8.13;;;12.20;61.40;;;;;;5054015;28;20235;-88
2021/10/25 14:36:43;;;;;;;14.13;10.38;;;12.20;60.80;;;;;;5047625;28;20281;-88
2021/10/25 14:39:22;;;;;;;10.10;8.20;;;12.30;61.70;;;;;;5048673;28;20233;-88